Airfield :







YOU CAN JOIN US ON...

 
LOGIN :

Register | Disclaimer

   EN    FR    IT 

 









Legend :    VFR   Marginal VFR   IFR   Intensive IFR   Very Intensive IFR
Visi :
Ceiling :
>= 8 km
>= 3000ft
5 to 8 km
1000 to 3000 ft
1500m to 5 km
500 to 1000 ft
800 to 1500m
200 to 500 ft
< 800m
< 200 ft
Symbols :   Thunderstorms  Fog  Heavy snow  Heavy precipitations  Wind > 20 kt






- Airport Elevation : 352 ft


KAUG - Augusta State

CURRENT METAR :
  • 091953Z AUTO 10005KT 1/4SM -RA FG VV004 04/04 A2996 RMK AO2 SLP147 P0015 T00440044

EXPIRED METARs :
  • 091945Z AUTO 08007KT 1/4SM RA FG VV005 04/04 A2997 RMK AO2 PRESFR P0013 T00390039
  • 091929Z AUTO 10006KT 1/2SM RA FG VV006 04/04 A2999 RMK AO2 P0008 T00390039
  • 091922Z AUTO 10009KT 1/2SM -RA FG VV004 04/04 A3000 RMK AO2 P0006 T00390039
  • 091853Z AUTO 11004KT M1/4SM -RA FG VV003 04/04 A3003 RMK AO2 SLP174 P0006 T00390039
  • 091753Z AUTO 14004KT 1/4SM -RA FG VV003 03/03 A3009 RMK AO2 RAB1655 SLP193 P0002 60002 T00330033 10044 20017 58015

TAF KAUG
Valid from the 09 at 18:00 until the 10 at 18:00 UTC


091754Z 0918/1018 16003KT 1 1/2SM -RA OVC004
TEMPO 0918/0921 1/4SM RA FG
FM092100 15005KT 1SM -RA BR OVC004 WS020/21040KT
FM100200 19010G17KT 2SM -RA OVC004 WS020/19050KT
FM101000 21010KT 6SM -RA BR OVC009
FM101500 21007KT P6SM OVC012



MET'MAP, your aeronautical weather chart ! - Copyright ORBIFLY December 2007 - Disclaimer

ORBIFLY MET'MAP TEAM :

Programming & Development : Alexandra Zaïnal
Concept & original design : Baudouin d'Aumeries
Assistance for programming : Marc-Olivier Méhu
Technical & hardware support : Manuel Goepfert

Contact : metmap@orbifly.com




SOURCES & CREDITS :

   NOAA